createdAt,value
2018-06-20T00:03:18.408Z,3.08
2018-06-20T00:05:45.391Z,2.70
2018-06-20T00:08:12.374Z,2.83
2018-06-20T00:10:41.524Z,3.00
2018-06-20T00:13:08.523Z,2.97
2018-06-20T00:15:36.336Z,2.87
2018-06-20T00:18:04.252Z,2.93
2018-06-20T00:20:31.240Z,3.10
2018-06-20T00:22:58.241Z,3.10
2018-06-20T00:25:25.269Z,3.03
2018-06-20T00:27:52.266Z,3.30
2018-06-20T00:30:19.250Z,2.90
2018-06-20T00:32:46.291Z,3.17
2018-06-20T00:35:13.304Z,3.00
2018-06-20T00:37:40.296Z,2.83
2018-06-20T00:40:07.403Z,3.10
2018-06-20T00:42:34.400Z,3.23
2018-06-20T00:45:01.379Z,3.10
2018-06-20T00:47:28.401Z,2.93
2018-06-20T00:49:55.411Z,2.67
2018-06-20T00:52:22.392Z,2.80
2018-06-20T00:54:49.417Z,2.93
2018-06-20T00:57:16.493Z,3.20
2018-06-20T00:59:43.484Z,3.20
2018-06-20T01:02:10.866Z,3.10
2018-06-20T01:04:37.942Z,3.07
2018-06-20T01:07:04.925Z,4.07
2018-06-20T01:09:31.938Z,3.23
2018-06-20T01:11:59.046Z,2.97
2018-06-20T01:14:25.972Z,3.10
2018-06-20T01:16:52.941Z,2.90
2018-06-20T01:21:59.730Z,3.78
2018-06-20T01:24:26.721Z,3.27
2018-06-20T01:26:53.706Z,3.67
2018-06-20T01:29:20.811Z,3.47
2018-06-20T01:31:47.811Z,3.23
2018-06-20T01:34:14.798Z,3.10
2018-06-20T01:36:41.822Z,3.43
2018-06-20T01:39:08.809Z,3.57
2018-06-20T01:41:36.642Z,3.60
2018-06-20T01:44:03.660Z,3.60
2018-06-20T01:46:30.675Z,3.63
2018-06-20T01:48:57.660Z,3.33
2018-06-20T01:51:24.695Z,4.00
2018-06-20T01:53:51.678Z,3.70
2018-06-20T01:56:18.683Z,3.17
2018-06-20T01:58:45.736Z,3.40
2018-06-20T02:01:12.738Z,3.23
2018-06-20T02:03:39.720Z,3.27
2018-06-20T02:08:39.401Z,3.53
2018-06-20T02:11:06.393Z,3.53
2018-06-20T02:13:33.388Z,3.67
2018-06-20T02:16:00.416Z,3.70
2018-06-20T02:18:27.406Z,3.80
2018-06-20T02:23:33.266Z,3.70
2018-06-20T02:26:00.251Z,3.87
2018-06-20T02:28:29.052Z,3.17
2018-06-20T02:30:54.310Z,3.57
2018-06-20T02:33:22.210Z,3.97
2018-06-20T02:35:50.745Z,3.90
2018-06-20T02:38:17.761Z,3.90
2018-06-20T02:40:44.743Z,4.43
2018-06-20T02:43:11.748Z,3.60
2018-06-20T02:45:38.844Z,4.47
2018-06-20T02:48:05.827Z,3.90
2018-06-20T02:50:33.452Z,4.00
2018-06-20T02:52:59.837Z,3.33
2018-06-20T02:55:26.824Z,3.70
2018-06-20T02:57:57.932Z,4.43
2018-06-20T03:00:24.962Z,4.03
2018-06-20T03:02:53.230Z,4.23
2018-06-20T03:05:20.219Z,4.27
2018-06-20T03:07:47.248Z,4.73
2018-06-20T03:10:14.235Z,3.90
2018-06-20T03:12:41.225Z,3.97
2018-06-20T03:15:08.252Z,3.83
2018-06-20T03:17:35.239Z,3.23
2018-06-20T03:20:03.164Z,3.13
2018-06-20T03:22:30.194Z,4.00
2018-06-20T03:24:57.182Z,3.47
2018-06-20T03:27:24.375Z,3.60
2018-06-20T03:29:51.276Z,3.90
2018-06-20T03:32:18.262Z,4.07
2018-06-20T03:34:45.247Z,3.93
2018-06-20T03:39:50.741Z,4.18
2018-06-20T03:42:18.739Z,3.67
2018-06-20T03:44:45.725Z,3.37
2018-06-20T03:47:12.710Z,3.83
2018-06-20T03:49:39.744Z,3.77
2018-06-20T03:52:06.723Z,3.53
2018-06-20T03:54:33.711Z,3.63
2018-06-20T03:57:00.726Z,4.27
2018-06-20T03:59:27.702Z,3.93
2018-06-20T04:01:54.681Z,3.67
2018-06-20T04:04:21.722Z,3.87
2018-06-20T04:06:48.710Z,3.93
2018-06-20T04:09:15.701Z,3.87
2018-06-20T04:11:42.718Z,4.10
2018-06-20T04:14:09.708Z,3.60
2018-06-20T04:16:36.687Z,3.43
2018-06-20T04:19:03.720Z,3.67
2018-06-20T04:21:30.707Z,3.80
2018-06-20T04:23:57.694Z,3.90
2018-06-20T04:26:24.719Z,4.10
2018-06-20T04:28:51.698Z,3.13
2018-06-20T04:31:18.684Z,3.97
2018-06-20T04:33:45.731Z,3.47
2018-06-20T04:36:12.720Z,3.73
2018-06-20T04:41:18.216Z,4.82
2018-06-20T04:43:45.194Z,4.97
2018-06-20T04:46:12.177Z,5.00
2018-06-20T04:48:39.202Z,4.67
2018-06-20T04:51:06.265Z,4.63
2018-06-20T04:53:33.257Z,4.60
2018-06-20T04:56:00.279Z,5.10
2018-06-20T04:58:27.280Z,4.47
2018-06-20T05:00:54.265Z,4.27
2018-06-20T05:03:21.297Z,4.53
2018-06-20T05:05:48.275Z,4.27
2018-06-20T05:08:15.258Z,4.60
2018-06-20T05:10:43.182Z,4.70
2018-06-20T05:13:10.161Z,4.30
2018-06-20T05:15:37.150Z,4.37
2018-06-20T05:18:04.213Z,4.77
2018-06-20T05:20:31.199Z,4.60
2018-06-20T05:22:58.181Z,4.30
2018-06-20T05:25:25.197Z,4.57
2018-06-20T05:27:53.089Z,4.73
2018-06-20T05:30:20.068Z,3.73
2018-06-20T05:32:47.106Z,4.10
2018-06-20T05:35:14.077Z,4.30
2018-06-20T05:37:41.076Z,4.67
2018-06-20T05:40:08.105Z,3.90
2018-06-20T05:42:35.127Z,4.30
2018-06-20T05:45:02.071Z,4.57
2018-06-20T05:47:29.093Z,4.60
2018-06-20T05:49:56.085Z,4.77
2018-06-20T05:52:23.073Z,4.60
2018-06-20T05:54:50.111Z,4.40
2018-06-20T05:59:55.707Z,5.55
2018-06-20T06:02:22.701Z,4.97
2018-06-20T06:04:49.688Z,4.83
2018-06-20T06:07:16.716Z,5.13
2018-06-20T06:09:43.702Z,4.60
2018-06-20T06:12:10.786Z,4.60
2018-06-20T06:14:37.808Z,4.30
2018-06-20T06:17:04.863Z,5.10
2018-06-20T06:19:31.785Z,4.50
2018-06-20T06:21:58.821Z,4.30
2018-06-20T06:24:26.630Z,3.43
2018-06-20T06:26:53.614Z,4.40
2018-06-20T06:29:20.630Z,3.97
2018-06-20T06:31:48.561Z,4.40
2018-06-20T06:34:15.543Z,4.17
2018-06-20T06:36:43.569Z,3.87
2018-06-20T06:39:10.643Z,3.87
2018-06-20T06:41:37.631Z,3.50
2018-06-20T06:44:04.719Z,3.60
2018-06-20T06:46:31.625Z,3.60
2018-06-20T06:48:58.616Z,4.00
2018-06-20T06:51:26.492Z,3.53
2018-06-20T06:53:53.493Z,3.77
2018-06-20T06:56:20.477Z,3.70
2018-06-20T06:58:47.487Z,3.40
2018-06-20T07:03:54.134Z,3.58
2018-06-20T07:06:21.114Z,3.67
2018-06-20T07:08:48.096Z,4.10
2018-06-20T07:11:15.114Z,3.67
2018-06-20T07:13:42.093Z,4.00
2018-06-20T07:16:09.077Z,4.10
2018-06-20T07:18:36.098Z,3.87
2018-06-20T07:21:03.082Z,3.77
2018-06-20T07:23:30.062Z,3.33
2018-06-20T07:25:57.092Z,3.80
2018-06-20T07:28:24.070Z,3.90
2018-06-20T07:30:51.055Z,3.93
2018-06-20T07:33:18.070Z,3.33
2018-06-20T07:35:45.142Z,3.23
2018-06-20T07:38:12.038Z,3.53
2018-06-20T07:40:39.060Z,3.33
2018-06-20T07:43:06.043Z,3.40
2018-06-20T07:45:33.034Z,3.20
2018-06-20T07:48:00.052Z,3.10
2018-06-20T07:50:27.036Z,3.40
2018-06-20T07:52:54.879Z,3.50
2018-06-20T07:55:21.897Z,3.07
2018-06-20T07:57:48.878Z,3.27
2018-06-20T08:00:16.576Z,3.37
2018-06-20T08:05:28.966Z,3.33
2018-06-20T08:07:55.988Z,3.00
2018-06-20T08:10:22.969Z,3.17
2018-06-20T08:12:49.951Z,3.20
2018-06-20T08:15:16.977Z,2.93
2018-06-20T08:17:43.961Z,3.00
2018-06-20T08:20:10.959Z,4.13
2018-06-20T08:22:38.919Z,2.97
2018-06-20T08:25:05.892Z,2.93
2018-06-20T08:27:34.327Z,2.90
2018-06-20T08:30:01.365Z,3.00
2018-06-20T08:32:31.868Z,2.57
2018-06-20T08:34:58.854Z,3.33
2018-06-20T08:37:27.927Z,3.20
2018-06-20T08:39:54.914Z,3.10
2018-06-20T08:42:21.913Z,3.33
2018-06-20T08:44:49.065Z,3.67
2018-06-20T08:49:55.940Z,3.40
2018-06-20T08:52:23.847Z,2.87
2018-06-20T08:54:50.822Z,3.00
2018-06-20T08:57:18.582Z,3.07
2018-06-20T08:59:45.581Z,3.20
2018-06-20T09:02:13.554Z,3.43
2018-06-20T09:04:40.548Z,2.90
2018-06-20T09:07:07.558Z,3.07
2018-06-20T09:09:34.627Z,2.90
2018-06-20T09:12:01.654Z,2.90
2018-06-20T09:14:29.455Z,3.00
2018-06-20T09:16:56.446Z,2.70
2018-06-20T09:19:23.544Z,2.97
2018-06-20T09:21:50.526Z,3.03
2018-06-20T09:24:17.519Z,2.83
2018-06-20T09:26:44.543Z,2.90
2018-06-20T09:29:12.676Z,3.13
2018-06-20T09:31:39.730Z,3.50
2018-06-20T09:34:06.748Z,3.10
2018-06-20T09:36:33.742Z,3.33
2018-06-20T09:39:00.725Z,3.17
2018-06-20T09:41:27.760Z,2.90
2018-06-20T09:43:54.745Z,3.43
2018-06-20T09:46:21.732Z,3.40
2018-06-20T09:48:48.755Z,3.27
2018-06-20T09:51:16.501Z,3.33
2018-06-20T09:53:43.490Z,3.40
2018-06-20T09:56:10.505Z,3.10
2018-06-20T09:58:37.591Z,3.40
2018-06-20T10:01:04.577Z,2.87
2018-06-20T10:06:11.174Z,3.17
2018-06-20T10:08:38.157Z,3.40
2018-06-20T10:11:05.145Z,3.53
2018-06-20T10:13:32.162Z,3.50
2018-06-20T10:15:59.145Z,2.87
2018-06-20T10:18:26.128Z,3.57
2018-06-20T10:20:54.684Z,2.93
2018-06-20T10:23:21.657Z,2.77
2018-06-20T10:25:48.955Z,2.80
2018-06-20T10:28:15.984Z,2.77
2018-06-20T10:30:43.791Z,3.07
2018-06-20T10:33:11.159Z,2.80
2018-06-20T10:35:38.193Z,3.13
2018-06-20T10:38:05.182Z,2.63
2018-06-20T10:40:32.155Z,2.93
2018-06-20T10:42:59.182Z,2.70
2018-06-20T10:45:26.170Z,2.40
2018-06-20T10:47:53.159Z,2.60
2018-06-20T10:50:20.969Z,2.70
2018-06-20T10:52:47.955Z,2.70
2018-06-20T10:55:17.206Z,2.90
2018-06-20T10:57:44.221Z,2.20
2018-06-20T11:00:11.211Z,2.80
2018-06-20T11:02:38.199Z,2.60
2018-06-20T11:05:05.221Z,2.30
2018-06-20T11:07:32.202Z,2.57
2018-06-20T11:09:59.187Z,2.90
2018-06-20T11:12:26.207Z,2.60
2018-06-20T11:14:53.192Z,2.25
2018-06-20T11:19:58.664Z,2.17
2018-06-20T11:22:25.645Z,1.65
2018-06-20T11:24:52.626Z,2.42
2018-06-20T11:27:19.656Z,2.20
2018-06-20T11:29:46.636Z,2.20
2018-06-20T11:32:13.616Z,2.10
2018-06-20T11:34:40.627Z,1.70
2018-06-20T11:37:07.615Z,1.98
2018-06-20T11:39:34.614Z,1.67
2018-06-20T11:42:01.616Z,2.40
2018-06-20T11:44:29.533Z,2.03
2018-06-20T11:46:56.515Z,2.10
2018-06-20T11:49:23.539Z,2.40
2018-06-20T11:51:51.417Z,2.00
2018-06-20T11:54:18.424Z,2.25
2018-06-20T11:56:46.171Z,1.90
2018-06-20T11:59:13.161Z,2.03
2018-06-20T12:01:40.154Z,2.15
2018-06-20T12:04:07.182Z,2.05
2018-06-20T12:06:34.164Z,2.33
2018-06-20T12:09:01.148Z,1.93
2018-06-20T12:11:28.156Z,2.03
2018-06-20T12:13:55.968Z,1.85
2018-06-20T12:16:25.661Z,1.80
2018-06-20T12:18:49.967Z,1.75
2018-06-20T12:23:56.446Z,1.73
2018-06-20T12:26:23.452Z,1.60
2018-06-20T12:28:52.285Z,1.35
2018-06-20T12:31:19.339Z,1.50
2018-06-20T12:33:46.324Z,1.30
2018-06-20T12:36:13.320Z,1.10
2018-06-20T12:38:40.338Z,1.10
2018-06-20T12:41:07.332Z,1.30
2018-06-20T12:43:35.167Z,1.10
2018-06-20T12:46:02.197Z,1.42
2018-06-20T12:48:29.175Z,0.95
2018-06-20T12:50:56.162Z,1.30
2018-06-20T12:53:23.182Z,0.98
2018-06-20T12:55:55.592Z,0.95
2018-06-20T12:58:21.720Z,1.20
2018-06-20T13:00:48.713Z,1.05
2018-06-20T13:03:16.632Z,0.80
2018-06-20T13:05:44.003Z,0.90
2018-06-20T13:08:10.655Z,1.00
2018-06-20T13:10:38.484Z,1.05
2018-06-20T13:13:06.283Z,0.90
2018-06-20T13:15:33.314Z,0.93
2018-06-20T13:18:00.302Z,0.95
2018-06-20T13:20:27.394Z,0.80
2018-06-20T13:22:55.381Z,0.80
2018-06-20T13:25:22.355Z,0.82
2018-06-20T13:27:49.493Z,0.90
2018-06-20T13:30:16.480Z,1.00
2018-06-20T13:35:21.983Z,1.10
2018-06-20T13:37:48.964Z,1.12
2018-06-20T13:40:15.947Z,0.90
2018-06-20T13:42:42.969Z,1.17
2018-06-20T13:45:09.952Z,0.98
2018-06-20T13:47:36.941Z,0.90
2018-06-20T13:50:03.976Z,1.27
2018-06-20T13:52:30.957Z,1.00
2018-06-20T13:54:58.755Z,0.80
2018-06-20T13:57:25.779Z,1.00
2018-06-20T13:59:52.772Z,0.93
2018-06-20T14:02:19.755Z,1.00
2018-06-20T14:04:46.770Z,0.80
2018-06-20T14:07:13.756Z,0.90
2018-06-20T14:09:40.744Z,0.90
2018-06-20T14:12:07.785Z,1.00
2018-06-20T14:14:34.766Z,1.10
2018-06-20T14:17:01.828Z,0.90
2018-06-20T14:19:29.828Z,1.08
2018-06-20T14:21:56.806Z,0.90
2018-06-20T14:24:23.782Z,1.05
2018-06-20T14:26:50.800Z,1.17
2018-06-20T14:29:17.798Z,1.00
2018-06-20T14:31:44.797Z,1.05
2018-06-20T14:34:11.820Z,1.20
2018-06-20T14:36:39.099Z,1.50
2018-06-20T14:39:06.079Z,1.20
2018-06-20T14:41:33.110Z,1.30
2018-06-20T14:44:00.109Z,1.23
2018-06-20T14:46:27.093Z,1.35
2018-06-20T14:51:32.581Z,1.20
2018-06-20T14:53:59.605Z,1.35
2018-06-20T14:56:26.581Z,1.30
2018-06-20T14:58:53.578Z,1.50
2018-06-20T15:01:20.601Z,1.42
2018-06-20T15:03:48.560Z,1.65
2018-06-20T15:06:16.511Z,1.58
2018-06-20T15:08:43.568Z,1.55
2018-06-20T15:11:10.572Z,1.67
2018-06-20T15:13:37.565Z,1.30
2018-06-20T15:16:04.582Z,1.77
2018-06-20T15:18:31.580Z,1.62
2018-06-20T15:20:58.568Z,1.35
2018-06-20T15:23:25.604Z,1.92
2018-06-20T15:25:52.597Z,1.55
2018-06-20T15:28:19.668Z,1.17
2018-06-20T15:30:46.689Z,1.65
2018-06-20T15:33:13.673Z,1.50
2018-06-20T15:35:40.661Z,1.35
2018-06-20T15:38:09.888Z,1.75
2018-06-20T15:40:36.881Z,1.50
2018-06-20T15:43:03.862Z,1.58
2018-06-20T15:45:30.994Z,1.60
2018-06-20T15:47:57.983Z,1.90
2018-06-20T15:50:25.726Z,1.60
2018-06-20T15:52:52.768Z,1.48
2018-06-20T15:55:20.591Z,1.73
2018-06-20T15:57:47.593Z,1.77
2018-06-20T16:00:14.671Z,1.45
2018-06-20T16:02:41.611Z,2.03
2018-06-20T16:05:08.583Z,1.73
2018-06-20T16:07:36.669Z,1.85
2018-06-20T16:12:42.153Z,2.10
2018-06-20T16:15:09.976Z,1.58
2018-06-20T16:17:37.817Z,1.95
2018-06-20T16:20:04.832Z,1.87
2018-06-20T16:22:34.669Z,1.80
2018-06-20T16:24:58.804Z,1.90
2018-06-20T16:27:25.813Z,2.60
2018-06-20T16:29:52.796Z,1.55
2018-06-20T16:32:19.785Z,2.08
2018-06-20T16:34:47.645Z,2.42
2018-06-20T16:37:14.633Z,2.67
2018-06-20T16:39:41.615Z,1.92
2018-06-20T16:42:09.627Z,2.33
2018-06-20T16:44:36.614Z,1.90
2018-06-20T16:47:03.605Z,1.87
2018-06-20T16:49:30.628Z,1.70
2018-06-20T16:51:57.622Z,1.70
2018-06-20T16:54:24.610Z,1.75
2018-06-20T16:56:51.635Z,1.75
2018-06-20T16:59:19.434Z,1.90
2018-06-20T17:01:46.422Z,1.90
2018-06-20T17:04:13.454Z,2.30
2018-06-20T17:06:41.256Z,1.90
2018-06-20T17:09:08.247Z,1.80
2018-06-20T17:11:35.273Z,2.05
2018-06-20T17:14:02.259Z,1.87
2018-06-20T17:16:29.245Z,1.77
2018-06-20T17:18:56.300Z,1.93
2018-06-20T17:21:23.294Z,1.80
2018-06-20T17:23:50.295Z,1.65
2018-06-20T17:26:17.324Z,1.80
2018-06-20T17:28:45.275Z,2.10
2018-06-20T17:31:13.254Z,1.77
2018-06-20T17:33:40.293Z,1.67
2018-06-20T17:36:07.390Z,2.10
2018-06-20T17:41:14.911Z,2.30
2018-06-20T17:43:42.856Z,1.90
2018-06-20T17:46:09.861Z,1.92
2018-06-20T17:48:37.835Z,1.75
2018-06-20T17:51:04.824Z,1.90
2018-06-20T17:53:31.814Z,1.97
2018-06-20T17:55:58.892Z,2.10
2018-06-20T17:58:26.794Z,2.17
2018-06-20T18:00:53.800Z,2.00
2018-06-20T18:03:21.789Z,2.00
2018-06-20T18:05:48.803Z,1.73
2018-06-20T18:08:16.692Z,2.10
2018-06-20T18:10:43.745Z,1.97
2018-06-20T18:13:10.730Z,2.40
2018-06-20T18:15:38.548Z,2.17
2018-06-20T18:18:05.567Z,2.00
2018-06-20T18:20:32.564Z,2.40
2018-06-20T18:22:59.564Z,2.30
2018-06-20T18:25:26.627Z,2.10
2018-06-20T18:27:53.621Z,2.00
2018-06-20T18:30:21.455Z,1.83
2018-06-20T18:32:49.409Z,1.70
2018-06-20T18:35:16.401Z,1.90
2018-06-20T18:37:44.347Z,1.93
2018-06-20T18:40:11.392Z,2.17
2018-06-20T18:42:38.385Z,2.30
2018-06-20T18:45:05.383Z,2.20
2018-06-20T18:47:33.370Z,2.07
2018-06-20T18:50:00.466Z,1.90
2018-06-20T18:52:27.461Z,2.00
2018-06-20T18:57:33.164Z,2.43
2018-06-20T19:00:00.195Z,2.20
2018-06-20T19:02:27.180Z,2.60
2018-06-20T19:04:54.172Z,2.47
2018-06-20T19:07:22.154Z,2.30
2018-06-20T19:09:50.100Z,2.20
2018-06-20T19:12:17.174Z,2.70
2018-06-20T19:14:44.208Z,2.43
2018-06-20T19:17:11.201Z,2.40
2018-06-20T19:19:38.195Z,2.10
2018-06-20T19:22:05.281Z,2.30
2018-06-20T19:24:32.302Z,2.00
2018-06-20T19:26:59.306Z,2.87
2018-06-20T19:29:26.338Z,2.23
2018-06-20T19:34:31.516Z,2.40
2018-06-20T19:36:58.501Z,2.33
2018-06-20T19:39:25.571Z,2.13
2018-06-20T19:41:53.378Z,2.20
2018-06-20T19:44:20.375Z,1.90
2018-06-20T19:46:47.375Z,2.30
2018-06-20T19:49:14.406Z,2.63
2018-06-20T19:51:41.405Z,2.17
2018-06-20T19:54:08.416Z,2.20
2018-06-20T19:56:35.510Z,2.20
2018-06-20T19:59:02.506Z,2.20
2018-06-20T20:01:29.938Z,2.20
2018-06-20T20:03:57.868Z,1.90
2018-06-20T20:06:24.877Z,1.90
2018-06-20T20:08:51.902Z,2.17
2018-06-20T20:11:18.927Z,2.20
2018-06-20T20:13:45.928Z,2.17
2018-06-20T20:16:12.928Z,2.17
2018-06-20T20:18:40.146Z,2.27
2018-06-20T20:21:07.136Z,2.30
2018-06-20T20:23:34.410Z,2.30
2018-06-20T20:26:01.422Z,2.23
2018-06-20T20:28:28.408Z,2.30
2018-06-20T20:30:55.401Z,2.70
2018-06-20T20:33:22.439Z,2.30
2018-06-20T20:35:49.475Z,2.47
2018-06-20T20:38:16.465Z,2.30
2018-06-20T20:40:43.516Z,2.67
2018-06-20T20:43:10.537Z,2.27
2018-06-20T20:45:37.533Z,2.33
2018-06-20T20:48:04.557Z,2.70
2018-06-20T20:53:10.978Z,2.57
2018-06-20T20:55:37.959Z,2.80
2018-06-20T20:58:04.962Z,2.50
2018-06-20T21:00:31.983Z,2.67
2018-06-20T21:02:58.971Z,2.20
2018-06-20T21:05:25.953Z,2.57
2018-06-20T21:07:52.980Z,2.60
2018-06-20T21:10:19.972Z,2.40
2018-06-20T21:12:49.393Z,2.53
2018-06-20T21:15:16.431Z,2.67
2018-06-20T21:17:43.485Z,2.57
2018-06-20T21:20:10.499Z,3.20
2018-06-20T21:22:37.522Z,3.00
2018-06-20T21:25:04.511Z,2.80
2018-06-20T21:27:31.499Z,2.47
2018-06-20T21:29:58.521Z,2.63
2018-06-20T21:32:25.506Z,2.43
2018-06-20T21:34:52.528Z,3.10
2018-06-20T21:37:20.277Z,2.73
2018-06-20T21:39:48.086Z,2.57
2018-06-20T21:42:15.069Z,2.77
2018-06-20T21:44:42.097Z,2.83
2018-06-20T21:47:09.079Z,2.50
2018-06-20T21:49:36.881Z,3.27
2018-06-20T21:52:03.918Z,3.03
2018-06-20T21:57:10.431Z,2.60
2018-06-20T21:59:37.389Z,2.87
2018-06-20T22:02:04.369Z,2.90
2018-06-20T22:04:31.391Z,2.63
2018-06-20T22:06:58.449Z,2.30
2018-06-20T22:09:26.560Z,2.87
2018-06-20T22:11:53.542Z,2.70
2018-06-20T22:14:20.545Z,2.60
2018-06-20T22:16:47.522Z,2.77
2018-06-20T22:19:14.545Z,3.47
2018-06-20T22:21:41.536Z,3.23
2018-06-20T22:24:08.525Z,3.47
2018-06-20T22:26:35.553Z,3.83
2018-06-20T22:29:02.575Z,3.20
2018-06-20T22:31:29.573Z,3.23
2018-06-20T22:33:56.596Z,2.80
2018-06-20T22:36:23.665Z,3.20
2018-06-20T22:38:50.970Z,3.20
2018-06-20T22:41:18.009Z,3.00
2018-06-20T22:43:45.452Z,2.90
2018-06-20T22:46:12.440Z,3.00
2018-06-20T22:48:39.480Z,2.83
2018-06-20T22:51:06.546Z,3.00
2018-06-20T22:53:33.845Z,3.27
2018-06-20T22:56:00.874Z,2.93
2018-06-20T22:58:28.670Z,3.03
2018-06-20T23:00:56.397Z,2.77
2018-06-20T23:03:24.264Z,3.37
2018-06-20T23:05:52.215Z,3.00
2018-06-20T23:08:19.209Z,3.20
2018-06-20T23:10:46.228Z,3.17
2018-06-20T23:15:51.723Z,3.63
2018-06-20T23:18:21.827Z,3.27
2018-06-20T23:20:48.817Z,3.10
2018-06-20T23:23:15.857Z,2.93
2018-06-20T23:25:42.838Z,3.10
2018-06-20T23:28:09.828Z,3.77
2018-06-20T23:30:36.930Z,3.27
2018-06-20T23:33:03.924Z,3.00
2018-06-20T23:35:30.931Z,3.03
2018-06-20T23:37:58.756Z,3.00
2018-06-20T23:40:25.749Z,3.93
2018-06-20T23:42:52.810Z,2.83
2018-06-20T23:45:19.829Z,3.23
2018-06-20T23:47:46.816Z,3.60
2018-06-20T23:50:13.804Z,3.27
2018-06-20T23:52:41.674Z,3.27
2018-06-20T23:55:08.664Z,3.10
2018-06-20T23:57:35.672Z,3.27
